Estación Meteorológica Peña el Pijo (Robertgarden) [ 11/17/17 23:53:10 CET ]

Fecha Hora Presion(HPa) Temp (°C) Humedad % Rocio (°C) Viento ( m/s) Direccion Lluvia 1Hora(mm) Lluvia 24H(mm) LLuvia Total(mm)
2017-Sep-30 01:01:40 1015.100 11.4 72 6.5         1457.65
2017-Sep-30 02:02:01 1014.700 10.9 74 6.5         1457.65
2017-Sep-30 03:01:35 1014.600 10.4 75 6.1         1457.65
2017-Sep-30 04:01:30 1014.400 9.4 78 5.7         1457.65
2017-Sep-30 05:09:56 1014.100 9.5 79 6.0         1457.65
2017-Sep-30 06:01:30 1013.700 8.8 80 5.5         1457.65
2017-Sep-30 07:01:45 1013.800 8.4 81 5.3         1457.65
2017-Sep-30 08:01:39 1013.800 8.4 82 5.5         1457.65
2017-Sep-30 09:01:53 1014.400 9.0 82 6.1         1457.65
2017-Sep-30 10:01:54 1014.300 16.6 72 11.5         1457.65
2017-Sep-30 11:02:23 1014.100 24.3 50 13.3         1457.65
2017-Sep-30 12:01:46 1013.800 28.5 35 11.4         1457.65
2017-Sep-30 13:01:41 1013.300 27.8 32 9.5         1457.65
2017-Sep-30 14:02:08 1012.700 27.8 32 9.5         1457.65
2017-Sep-30 15:01:52 1012.100 26.4 32 8.3         1457.65
2017-Sep-30 16:01:43 1011.700 26.3 32 8.2         1457.65
2017-Sep-30 17:01:47 1011.300 25.9 31 7.4         1457.65
2017-Sep-30 18:01:38 1011.200 25.8 36 9.5         1457.65
2017-Sep-30 19:01:42 1011.500 23.9 40 9.5         1457.65
2017-Sep-30 20:01:48 1011.900 21.8 46 9.6         1457.65
2017-Sep-30 21:02:01 1012.400 18.5 54 9.0         1457.65
2017-Sep-30 22:01:46 1013.100 16.1 59 8.1         1457.65
2017-Sep-30 23:01:40 1013.000 14.9 61 7.4         1457.65

Temperatura Máxima:28°    Temperatura Mínima:
Presión Máxima:1015.100 Hpa    Presión Mínima:1011.200 Hpa


Volver